首页
METAR-TAF:

METAR-TAF

机场 :

Driggs, 爱达荷州, 美国

纬度: 43-44-33N, 经度: 111-05-51W, 海拔: 1899米

当前天气观测

该预报发布于48分钟前的20:56 UTC
风速9节,风向南转西南
温度 3°C
湿度 70%
气压 1016 hPa
能見度: 16.1公里
多云层高于4000英尺
多云层高于4700英尺
阴天层高于6500英尺

METAR: KDIJ 072056Z AUTO 21009KT 10SM BKN040 BKN047 OVC065 03/M02 A3001 RMK AO2 SLP194 T00331022 56023

时间: 14:44 (21:44 UTC)

预报

该预报发布于1小时和51分钟前的19:53 UTC
预报有效从07日的 20点(UTC)到 08日的 18点(UTC)
风速10节,风向
能見度: 10公里
散云层高于1500英尺
阴天层高于3500英尺
附近有阵雨
从 08日的 0100点(UTC)
风速9节,风向
能見度: 1.6公里
阴天层高于400英尺
小雪, 轻雾

TAF: KDIJ 071953Z 0720/0818 18010KT P6SM VCSH SCT015 OVC035 FM080100 17009KT 1SM -SN BR OVC004 AMD LTD TO CLD VIS AND WIND

超过4000个机场的气象观测和天气预报(METAR&TAF报告)。

可查询的气象台以黄色和红色小点在地图上表示。

将鼠标移到小点上方,可查看气象台名称。

然后点击查看天气观测和预报。

如需切换地图:点击带黑十字的绿色按钮放大地图;点击带横线的绿色按钮缩小地图;或者点击绿色箭头查看邻近地区的地图。


METAR-TAF: